sensor_id;sensor_type;location;lat;lon;timestamp;pressure;altitude;pressure_sealevel;temperature
51149;BMP280;37210;50.058;8.688;2023-04-15T00:02:00;99361.91;;;8.52
51149;BMP280;37210;50.058;8.688;2023-04-15T00:04:27;99365.44;;;8.45
51149;BMP280;37210;50.058;8.688;2023-04-15T00:06:56;99360.31;;;8.24
51149;BMP280;37210;50.058;8.688;2023-04-15T00:09:24;99358.56;;;8.29
51149;BMP280;37210;50.058;8.688;2023-04-15T00:11:51;99362.88;;;8.40
51149;BMP280;37210;50.058;8.688;2023-04-15T00:14:19;99355.03;;;8.40
51149;BMP280;37210;50.058;8.688;2023-04-15T00:16:46;99357.69;;;8.27
51149;BMP280;37210;50.058;8.688;2023-04-15T00:19:21;99356.84;;;8.26
51149;BMP280;37210;50.058;8.688;2023-04-15T00:21:49;99326.44;;;8.22
51149;BMP280;37210;50.058;8.688;2023-04-15T00:24:16;99360.44;;;7.96
51149;BMP280;37210;50.058;8.688;2023-04-15T00:26:44;99355.09;;;8.28
51149;BMP280;37210;50.058;8.688;2023-04-15T00:29:12;99343.81;;;8.26
51149;BMP280;37210;50.058;8.688;2023-04-15T00:31:40;99344.69;;;8.25
51149;BMP280;37210;50.058;8.688;2023-04-15T00:34:08;99349.94;;;8.08
51149;BMP280;37210;50.058;8.688;2023-04-15T00:36:37;99344.72;;;8.18
51149;BMP280;37210;50.058;8.688;2023-04-15T00:39:04;99324.78;;;8.09
51149;BMP280;37210;50.058;8.688;2023-04-15T00:41:31;99339.53;;;8.10
51149;BMP280;37210;50.058;8.688;2023-04-15T00:44:01;99327.41;;;8.04
51149;BMP280;37210;50.058;8.688;2023-04-15T00:46:29;99333.44;;;8.13
51149;BMP280;37210;50.058;8.688;2023-04-15T00:48:57;99342.19;;;7.96
51149;BMP280;37210;50.058;8.688;2023-04-15T00:51:25;99304.84;;;7.97
51149;BMP280;37210;50.058;8.688;2023-04-15T00:53:54;99338.66;;;8.08
51149;BMP280;37210;50.058;8.688;2023-04-15T00:56:22;99343.97;;;7.84
51149;BMP280;37210;50.058;8.688;2023-04-15T00:58:50;99345.72;;;7.83
51149;BMP280;37210;50.058;8.688;2023-04-15T01:01:20;99343.97;;;7.85
51149;BMP280;37210;50.058;8.688;2023-04-15T01:03:50;99350.94;;;7.82
51149;BMP280;37210;50.058;8.688;2023-04-15T01:06:17;99340.56;;;7.67
51149;BMP280;37210;50.058;8.688;2023-04-15T01:08:45;99346.66;;;7.57
51149;BMP280;37210;50.058;8.688;2023-04-15T01:11:14;99340.53;;;7.76
51149;BMP280;37210;50.058;8.688;2023-04-15T01:13:43;99330.13;;;7.64
51149;BMP280;37210;50.058;8.688;2023-04-15T01:16:11;99334.47;;;7.75
51149;BMP280;37210;50.058;8.688;2023-04-15T01:18:39;99342.22;;;7.83
51149;BMP280;37210;50.058;8.688;2023-04-15T01:21:07;99353.50;;;7.86
51149;BMP280;37210;50.058;8.688;2023-04-15T01:23:35;99344.88;;;7.71
51149;BMP280;37210;50.058;8.688;2023-04-15T01:26:06;99350.06;;;7.81
51149;BMP280;37210;50.058;8.688;2023-04-15T01:28:35;99337.03;;;7.83
51149;BMP280;37210;50.058;8.688;2023-04-15T01:31:05;99336.19;;;7.76
51149;BMP280;37210;50.058;8.688;2023-04-15T01:33:36;99349.22;;;7.66
51149;BMP280;37210;50.058;8.688;2023-04-15T01:36:05;99344.88;;;7.66
51149;BMP280;37210;50.058;8.688;2023-04-15T01:38:35;99342.28;;;7.62
51149;BMP280;37210;50.058;8.688;2023-04-15T01:41:03;99346.63;;;7.69
51149;BMP280;37210;50.058;8.688;2023-04-15T01:43:34;99332.75;;;7.65
51149;BMP280;37210;50.058;8.688;2023-04-15T01:46:02;99344.03;;;7.67
51149;BMP280;37210;50.058;8.688;2023-04-15T01:48:31;99340.53;;;7.76
51149;BMP280;37210;50.058;8.688;2023-04-15T01:50:59;99302.44;;;7.43
51149;BMP280;37210;50.058;8.688;2023-04-15T01:53:26;99318.91;;;7.54
51149;BMP280;37210;50.058;8.688;2023-04-15T01:55:54;99322.41;;;7.41
51149;BMP280;37210;50.058;8.688;2023-04-15T01:58:22;99341.47;;;7.51
51149;BMP280;37210;50.058;8.688;2023-04-15T02:00:51;99345.75;;;7.67
51149;BMP280;37210;50.058;8.688;2023-04-15T02:03:18;99326.69;;;7.57
51149;BMP280;37210;50.058;8.688;2023-04-15T02:05:46;99344.00;;;7.72
51149;BMP280;37210;50.058;8.688;2023-04-15T02:08:14;99282.56;;;7.22
51149;BMP280;37210;50.058;8.688;2023-04-15T02:10:41;99276.47;;;7.26
51149;BMP280;37210;50.058;8.688;2023-04-15T02:13:09;99343.16;;;7.65
51149;BMP280;37210;50.058;8.688;2023-04-15T02:15:36;99284.25;;;7.28
51149;BMP280;37210;50.058;8.688;2023-04-15T02:18:06;99344.06;;;7.52
51149;BMP280;37210;50.058;8.688;2023-04-15T02:20:35;99317.19;;;7.50
51149;BMP280;37210;50.058;8.688;2023-04-15T02:23:03;99345.81;;;7.37
51149;BMP280;37210;50.058;8.688;2023-04-15T02:25:32;99325.00;;;7.41
51149;BMP280;37210;50.058;8.688;2023-04-15T02:27:59;99332.81;;;7.31
51149;BMP280;37210;50.058;8.688;2023-04-15T02:30:27;99280.00;;;6.85
51149;BMP280;37210;50.058;8.688;2023-04-15T02:32:54;99317.25;;;7.08
51149;BMP280;37210;50.058;8.688;2023-04-15T02:35:26;99351.03;;;7.31
51149;BMP280;37210;50.058;8.688;2023-04-15T02:37:54;99344.06;;;7.48
51149;BMP280;37210;50.058;8.688;2023-04-15T02:40:22;99347.53;;;7.53
51149;BMP280;37210;50.058;8.688;2023-04-15T02:42:49;99343.22;;;7.49
51149;BMP280;37210;50.058;8.688;2023-04-15T02:45:18;99178.69;;;6.52
51149;BMP280;37210;50.058;8.688;2023-04-15T02:47:48;99348.41;;;7.43
51149;BMP280;37210;50.058;8.688;2023-04-15T02:50:16;99345.78;;;7.47
51149;BMP280;37210;50.058;8.688;2023-04-15T02:52:45;99348.41;;;7.40
51149;BMP280;37210;50.058;8.688;2023-04-15T02:55:12;99351.00;;;7.43
51149;BMP280;37210;50.058;8.688;2023-04-15T02:57:40;99339.75;;;7.32
51149;BMP280;37210;50.058;8.688;2023-04-15T03:00:10;99276.53;;;6.68
51149;BMP280;37210;50.058;8.688;2023-04-15T03:02:41;99194.28;;;6.17
51149;BMP280;37210;50.058;8.688;2023-04-15T03:05:11;99354.50;;;7.16
51149;BMP280;37210;50.058;8.688;2023-04-15T03:07:44;99364.91;;;7.04
51149;BMP280;37210;50.058;8.688;2023-04-15T03:10:12;99362.31;;;7.16
51149;BMP280;37210;50.058;8.688;2023-04-15T03:12:40;99337.19;;;6.98
51149;BMP280;37210;50.058;8.688;2023-04-15T03:15:11;99320.72;;;6.81
51149;BMP280;37210;50.058;8.688;2023-04-15T03:17:43;99284.31;;;6.50
51149;BMP280;37210;50.058;8.688;2023-04-15T03:20:12;99356.25;;;7.03
51149;BMP280;37210;50.058;8.688;2023-04-15T03:22:40;99349.31;;;6.92
51149;BMP280;37210;50.058;8.688;2023-04-15T03:25:09;99153.53;;;5.63
51149;BMP280;37210;50.058;8.688;2023-04-15T03:27:37;99310.31;;;6.78
51149;BMP280;37210;50.058;8.688;2023-04-15T03:30:06;99247.97;;;6.37
51149;BMP280;37210;50.058;8.688;2023-04-15T03:32:37;99340.66;;;6.84
51149;BMP280;37210;50.058;8.688;2023-04-15T03:35:06;99298.22;;;6.65
51149;BMP280;37210;50.058;8.688;2023-04-15T03:37:34;99310.31;;;6.72
51149;BMP280;37210;50.058;8.688;2023-04-15T03:40:02;99332.84;;;6.97
51149;BMP280;37210;50.058;8.688;2023-04-15T03:42:30;99346.69;;;6.78
51149;BMP280;37210;50.058;8.688;2023-04-15T03:44:58;99298.19;;;6.56
51149;BMP280;37210;50.058;8.688;2023-04-15T03:47:26;99315.50;;;6.62
51149;BMP280;37210;50.058;8.688;2023-04-15T03:49:53;99258.31;;;6.16
51149;BMP280;37210;50.058;8.688;2023-04-15T03:52:20;99342.34;;;6.70
51149;BMP280;37210;50.058;8.688;2023-04-15T03:54:48;99253.97;;;6.14
51149;BMP280;37210;50.058;8.688;2023-04-15T03:57:16;99324.19;;;6.74
51149;BMP280;37210;50.058;8.688;2023-04-15T03:59:45;99331.13;;;6.86
51149;BMP280;37210;50.058;8.688;2023-04-15T04:02:12;99339.75;;;6.55
51149;BMP280;37210;50.058;8.688;2023-04-15T04:04:40;99302.50;;;6.48
51149;BMP280;37210;50.058;8.688;2023-04-15T04:07:14;99316.38;;;6.61
51149;BMP280;37210;50.058;8.688;2023-04-15T04:09:42;99308.59;;;6.56
51149;BMP280;37210;50.058;8.688;2023-04-15T04:12:10;99324.16;;;6.50
51149;BMP280;37210;50.058;8.688;2023-04-15T04:14:38;99333.69;;;6.60
51149;BMP280;37210;50.058;8.688;2023-04-15T04:17:07;99323.28;;;6.45
51149;BMP280;37210;50.058;8.688;2023-04-15T04:19:34;99344.09;;;6.62
51149;BMP280;37210;50.058;8.688;2023-04-15T04:22:02;99314.66;;;6.58
51149;BMP280;37210;50.058;8.688;2023-04-15T04:24:30;99351.03;;;6.69
51149;BMP280;37210;50.058;8.688;2023-04-15T04:26:57;99320.66;;;6.34
51149;BMP280;37210;50.058;8.688;2023-04-15T04:29:25;99251.34;;;5.94
51149;BMP280;37210;50.058;8.688;2023-04-15T04:31:52;99312.03;;;6.44
51149;BMP280;37210;50.058;8.688;2023-04-15T04:34:21;99336.31;;;6.78
51149;BMP280;37210;50.058;8.688;2023-04-15T04:36:48;99329.34;;;6.58
51149;BMP280;37210;50.058;8.688;2023-04-15T04:39:16;99307.72;;;6.42
51149;BMP280;37210;50.058;8.688;2023-04-15T04:41:43;99348.41;;;6.51
51149;BMP280;37210;50.058;8.688;2023-04-15T04:44:11;99343.22;;;6.60
51149;BMP280;37210;50.058;8.688;2023-04-15T04:46:39;99335.41;;;6.52
51149;BMP280;37210;50.058;8.688;2023-04-15T04:49:06;99323.28;;;6.43
51149;BMP280;37210;50.058;8.688;2023-04-15T04:51:35;99355.34;;;6.58
51149;BMP280;37210;50.058;8.688;2023-04-15T04:54:03;99350.16;;;6.61
51149;BMP280;37210;50.058;8.688;2023-04-15T04:56:30;99363.81;;;5.99
51149;BMP280;37210;50.058;8.688;2023-04-15T04:58:59;99355.91;;;5.83
51149;BMP280;37210;50.058;8.688;2023-04-15T05:01:27;99363.81;;;5.99
51149;BMP280;37210;50.058;8.688;2023-04-15T05:03:54;99361.31;;;6.25
51149;BMP280;37210;50.058;8.688;2023-04-15T05:06:22;99342.28;;;6.29
51149;BMP280;37210;50.058;8.688;2023-04-15T05:08:51;99294.63;;;6.06
51149;BMP280;37210;50.058;8.688;2023-04-15T05:11:18;99363.16;;;6.59
51149;BMP280;37210;50.058;8.688;2023-04-15T05:13:46;99359.66;;;6.62
51149;BMP280;37210;50.058;8.688;2023-04-15T05:16:14;99365.78;;;6.76
51149;BMP280;37210;50.058;8.688;2023-04-15T05:18:41;99305.97;;;6.45
51149;BMP280;37210;50.058;8.688;2023-04-15T05:21:09;99289.50;;;6.40
51149;BMP280;37210;50.058;8.688;2023-04-15T05:23:37;99338.88;;;6.68
51149;BMP280;37210;50.058;8.688;2023-04-15T05:26:06;99256.59;;;6.20
51149;BMP280;37210;50.058;8.688;2023-04-15T05:28:34;99323.34;;;6.80
51149;BMP280;37210;50.058;8.688;2023-04-15T05:31:02;99308.56;;;6.41
51149;BMP280;37210;50.058;8.688;2023-04-15T05:33:29;99338.91;;;6.89
51149;BMP280;37210;50.058;8.688;2023-04-15T05:35:57;99360.59;;;7.03
51149;BMP280;37210;50.058;8.688;2023-04-15T05:38:24;99376.19;;;7.06
51149;BMP280;37210;50.058;8.688;2023-04-15T05:40:52;99346.69;;;6.72
51149;BMP280;37210;50.058;8.688;2023-04-15T05:43:21;99361.44;;;6.96
51149;BMP280;37210;50.058;8.688;2023-04-15T05:45:48;99389.19;;;7.12
51149;BMP280;37210;50.058;8.688;2023-04-15T05:48:16;99384.00;;;7.09
51149;BMP280;37210;50.058;8.688;2023-04-15T05:50:43;99363.16;;;6.86
51149;BMP280;37210;50.058;8.688;2023-04-15T05:53:11;99385.72;;;7.08
51149;BMP280;37210;50.058;8.688;2023-04-15T05:55:38;99370.13;;;7.13
51149;BMP280;37210;50.058;8.688;2023-04-15T05:58:06;99349.31;;;7.13
51149;BMP280;37210;50.058;8.688;2023-04-15T06:00:34;99295.59;;;6.83
51149;BMP280;37210;50.058;8.688;2023-04-15T06:03:02;99272.22;;;6.89
51149;BMP280;37210;50.058;8.688;2023-04-15T06:05:31;99387.41;;;7.56
51149;BMP280;37210;50.058;8.688;2023-04-15T06:07:58;99396.06;;;7.64
51149;BMP280;37210;50.058;8.688;2023-04-15T06:10:26;99370.06;;;7.55
51149;BMP280;37210;50.058;8.688;2023-04-15T06:12:54;99354.47;;;7.51
51149;BMP280;37210;50.058;8.688;2023-04-15T06:15:22;99390.81;;;7.88
51149;BMP280;37210;50.058;8.688;2023-04-15T06:17:50;99346.66;;;7.61
51149;BMP280;37210;50.058;8.688;2023-04-15T06:20:18;99406.44;;;7.81
51149;BMP280;37210;50.058;8.688;2023-04-15T06:22:46;99383.88;;;7.90
51149;BMP280;37210;50.058;8.688;2023-04-15T06:25:13;99329.34;;;7.48
51149;BMP280;37210;50.058;8.688;2023-04-15T06:27:41;99402.09;;;7.84
51149;BMP280;37210;50.058;8.688;2023-04-15T06:30:09;99401.13;;;8.19
51149;BMP280;37210;50.058;8.688;2023-04-15T06:32:37;99371.75;;;7.83
51149;BMP280;37210;50.058;8.688;2023-04-15T06:35:07;99324.13;;;7.47
51149;BMP280;37210;50.058;8.688;2023-04-15T06:37:35;99373.22;;;8.52
51149;BMP280;37210;50.058;8.688;2023-04-15T06:40:03;99408.66;;;8.83
51149;BMP280;37210;50.058;8.688;2023-04-15T06:42:31;99412.81;;;9.06
51149;BMP280;37210;50.058;8.688;2023-04-15T06:44:59;99400.59;;;9.15
51149;BMP280;37210;50.058;8.688;2023-04-15T06:47:27;99376.19;;;9.22
51149;BMP280;37210;50.058;8.688;2023-04-15T06:49:54;99403.81;;;9.46
51149;BMP280;37210;50.058;8.688;2023-04-15T06:52:23;99398.25;;;9.79
51149;BMP280;37210;50.058;8.688;2023-04-15T06:54:51;99413.00;;;9.85
51149;BMP280;37210;50.058;8.688;2023-04-15T06:57:18;99364.47;;;9.65
51149;BMP280;37210;50.058;8.688;2023-04-15T06:59:46;99351.31;;;9.75
51149;BMP280;37210;50.058;8.688;2023-04-15T07:02:13;99384.00;;;10.13
51149;BMP280;37210;50.058;8.688;2023-04-15T07:04:41;99348.31;;;10.11
51149;BMP280;37210;50.058;8.688;2023-04-15T07:07:08;99416.31;;;10.73
51149;BMP280;37210;50.058;8.688;2023-04-15T07:09:37;99409.22;;;10.81
51149;BMP280;37210;50.058;8.688;2023-04-15T07:12:05;99401.91;;;10.45
51149;BMP280;37210;50.058;8.688;2023-04-15T07:14:32;99418.53;;;11.00
51149;BMP280;37210;50.058;8.688;2023-04-15T07:17:00;99412.81;;;11.32
51149;BMP280;37210;50.058;8.688;2023-04-15T07:19:27;99312.34;;;10.87
51149;BMP280;37210;50.058;8.688;2023-04-15T07:21:55;99356.78;;;11.42
51149;BMP280;37210;50.058;8.688;2023-04-15T07:24:22;99354.22;;;11.39
51149;BMP280;37210;50.058;8.688;2023-04-15T07:26:54;99407.03;;;12.13
51149;BMP280;37210;50.058;8.688;2023-04-15T07:29:23;99185.66;;;9.97
51149;BMP280;37210;50.058;8.688;2023-04-15T07:31:51;99384.63;;;11.48
51149;BMP280;37210;50.058;8.688;2023-04-15T07:34:19;99383.06;;;10.81
51149;BMP280;37210;50.058;8.688;2023-04-15T07:36:47;99405.78;;;11.36
51149;BMP280;37210;50.058;8.688;2023-04-15T07:39:17;99405.63;;;11.95
51149;BMP280;37210;50.058;8.688;2023-04-15T07:41:45;99420.22;;;12.08
51149;BMP280;37210;50.058;8.688;2023-04-15T07:44:15;99405.25;;;11.67
51149;BMP280;37210;50.058;8.688;2023-04-15T07:46:42;99413.13;;;11.64
51149;BMP280;37210;50.058;8.688;2023-04-15T07:49:10;99243.75;;;10.72
51149;BMP280;37210;50.058;8.688;2023-04-15T07:51:38;99161.31;;;10.51
51149;BMP280;37210;50.058;8.688;2023-04-15T07:54:06;99357.31;;;11.10
51149;BMP280;37210;50.058;8.688;2023-04-15T07:56:34;99378.44;;;11.00
51149;BMP280;37210;50.058;8.688;2023-04-15T07:59:02;99409.69;;;11.61
51149;BMP280;37210;50.058;8.688;2023-04-15T08:01:32;99414.47;;;11.88
51149;BMP280;37210;50.058;8.688;2023-04-15T08:04:00;99405.56;;;11.98
51149;BMP280;37210;50.058;8.688;2023-04-15T08:06:28;99415.31;;;11.90
51149;BMP280;37210;50.058;8.688;2023-04-15T08:08:55;99361.25;;;11.36
51149;BMP280;37210;50.058;8.688;2023-04-15T08:11:23;99264.59;;;10.75
51149;BMP280;37210;50.058;8.688;2023-04-15T08:13:51;99403.22;;;11.33
51149;BMP280;37210;50.058;8.688;2023-04-15T08:16:23;99387.41;;;11.39
51149;BMP280;37210;50.058;8.688;2023-04-15T08:18:55;99099.34;;;10.01
51149;BMP280;37210;50.058;8.688;2023-04-15T08:21:23;99385.75;;;11.83
51149;BMP280;37210;50.058;8.688;2023-04-15T08:23:52;99416.31;;;11.84
51149;BMP280;37210;50.058;8.688;2023-04-15T08:26:20;99417.50;;;12.13
51149;BMP280;37210;50.058;8.688;2023-04-15T08:28:48;99375.78;;;12.02
51149;BMP280;37210;50.058;8.688;2023-04-15T08:31:17;99344.03;;;11.73
51149;BMP280;37210;50.058;8.688;2023-04-15T08:33:46;99416.94;;;11.95
51149;BMP280;37210;50.058;8.688;2023-04-15T08:36:15;99135.75;;;10.15
51149;BMP280;37210;50.058;8.688;2023-04-15T08:38:44;99223.59;;;11.25
51149;BMP280;37210;50.058;8.688;2023-04-15T08:41:19;99416.69;;;12.53
51149;BMP280;37210;50.058;8.688;2023-04-15T08:43:52;99187.53;;;11.40
51149;BMP280;37210;50.058;8.688;2023-04-15T08:46:23;99253.44;;;11.61
51149;BMP280;37210;50.058;8.688;2023-04-15T08:48:51;99145.91;;;11.69
51149;BMP280;37210;50.058;8.688;2023-04-15T08:51:25;99416.84;;;12.85
51149;BMP280;37210;50.058;8.688;2023-04-15T08:53:53;99303.94;;;12.12
51149;BMP280;37210;50.058;8.688;2023-04-15T08:56:24;99394.38;;;12.72
51149;BMP280;37210;50.058;8.688;2023-04-15T08:58:52;99226.94;;;12.18
51149;BMP280;37210;50.058;8.688;2023-04-15T09:01:21;99383.41;;;12.94
51149;BMP280;37210;50.058;8.688;2023-04-15T09:03:49;99420.19;;;12.52
51149;BMP280;37210;50.058;8.688;2023-04-15T09:06:17;99317.53;;;11.88
51149;BMP280;37210;50.058;8.688;2023-04-15T09:08:48;99348.25;;;12.24
51149;BMP280;37210;50.058;8.688;2023-04-15T09:11:17;99423.31;;;12.27
51149;BMP280;37210;50.058;8.688;2023-04-15T09:13:45;99421.31;;;12.41
51149;BMP280;37210;50.058;8.688;2023-04-15T09:16:14;99192.44;;;11.12
51149;BMP280;37210;50.058;8.688;2023-04-15T09:18:42;99324.34;;;12.38
51149;BMP280;37210;50.058;8.688;2023-04-15T09:21:11;99324.66;;;11.34
51149;BMP280;37210;50.058;8.688;2023-04-15T09:23:53;99196.88;;;10.58
51149;BMP280;37210;50.058;8.688;2023-04-15T09:26:32;99426.09;;;12.63
51149;BMP280;37210;50.058;8.688;2023-04-15T09:29:04;99434.56;;;12.76
51149;BMP280;37210;50.058;8.688;2023-04-15T09:31:33;99406.69;;;11.83
51149;BMP280;37210;50.058;8.688;2023-04-15T09:34:02;99343.66;;;11.45
51149;BMP280;37210;50.058;8.688;2023-04-15T09:36:37;99143.28;;;10.83
51149;BMP280;37210;50.058;8.688;2023-04-15T09:39:20;99266.66;;;11.54
51149;BMP280;37210;50.058;8.688;2023-04-15T09:42:04;99222.25;;;10.55
51149;BMP280;37210;50.058;8.688;2023-04-15T09:44:33;99212.63;;;11.05
51149;BMP280;37210;50.058;8.688;2023-04-15T09:47:00;99453.16;;;12.21
51149;BMP280;37210;50.058;8.688;2023-04-15T09:49:28;99365.28;;;12.02
51149;BMP280;37210;50.058;8.688;2023-04-15T09:51:59;99288.44;;;11.57
51149;BMP280;37210;50.058;8.688;2023-04-15T09:54:34;99469.53;;;12.34
51149;BMP280;37210;50.058;8.688;2023-04-15T09:57:06;99377.97;;;11.79
51149;BMP280;37210;50.058;8.688;2023-04-15T09:59:36;99464.09;;;12.43
51149;BMP280;37210;50.058;8.688;2023-04-15T10:02:05;99481.59;;;11.96
51149;BMP280;37210;50.058;8.688;2023-04-15T10:04:35;99408.38;;;11.87
51149;BMP280;37210;50.058;8.688;2023-04-15T10:07:08;99471.38;;;12.71
51149;BMP280;37210;50.058;8.688;2023-04-15T10:09:39;99216.38;;;11.38
51149;BMP280;37210;50.058;8.688;2023-04-15T10:12:09;99189.28;;;10.93
51149;BMP280;37210;50.058;8.688;2023-04-15T10:14:37;99477.22;;;12.43
51149;BMP280;37210;50.058;8.688;2023-04-15T10:17:06;99480.69;;;12.86
51149;BMP280;37210;50.058;8.688;2023-04-15T10:19:37;99476.44;;;13.22
51149;BMP280;37210;50.058;8.688;2023-04-15T10:22:05;99480.56;;;12.92
51149;BMP280;37210;50.058;8.688;2023-04-15T10:24:33;99329.78;;;11.87
51149;BMP280;37210;50.058;8.688;2023-04-15T10:27:04;99499.72;;;12.97
51149;BMP280;37210;50.058;8.688;2023-04-15T10:29:33;99233.22;;;11.69
51149;BMP280;37210;50.058;8.688;2023-04-15T10:32:01;99462.16;;;12.52
51149;BMP280;37210;50.058;8.688;2023-04-15T10:34:30;99344.72;;;12.25
51149;BMP280;37210;50.058;8.688;2023-04-15T10:37:01;99460.28;;;12.99
51149;BMP280;37210;50.058;8.688;2023-04-15T10:39:42;99289.78;;;11.31
51149;BMP280;37210;50.058;8.688;2023-04-15T10:42:13;99287.34;;;11.69
51149;BMP280;37210;50.058;8.688;2023-04-15T10:44:43;99353.75;;;11.66
51149;BMP280;37210;50.058;8.688;2023-04-15T10:47:15;99420.63;;;12.31
51149;BMP280;37210;50.058;8.688;2023-04-15T10:49:47;99292.97;;;11.48
51149;BMP280;37210;50.058;8.688;2023-04-15T10:52:20;99510.66;;;12.76
51149;BMP280;37210;50.058;8.688;2023-04-15T10:55:01;99518.41;;;12.82
51149;BMP280;37210;50.058;8.688;2023-04-15T10:57:37;99514.19;;;12.73
51149;BMP280;37210;50.058;8.688;2023-04-15T11:00:11;99506.94;;;12.86
51149;BMP280;37210;50.058;8.688;2023-04-15T11:02:45;99405.72;;;12.35
51149;BMP280;37210;50.058;8.688;2023-04-15T11:05:15;99464.84;;;12.49
51149;BMP280;37210;50.058;8.688;2023-04-15T11:07:52;99241.81;;;10.81
51149;BMP280;37210;50.058;8.688;2023-04-15T11:10:51;99257.31;;;11.42
51149;BMP280;37210;50.058;8.688;2023-04-15T11:13:26;99270.94;;;11.59
51149;BMP280;37210;50.058;8.688;2023-04-15T11:15:58;99439.72;;;13.19
51149;BMP280;37210;50.058;8.688;2023-04-15T11:18:31;99277.13;;;11.55
51149;BMP280;37210;50.058;8.688;2023-04-15T11:21:02;99521.84;;;13.25
51149;BMP280;37210;50.058;8.688;2023-04-15T11:23:34;99431.91;;;12.36
51149;BMP280;37210;50.058;8.688;2023-04-15T11:26:06;99487.81;;;13.21
51149;BMP280;37210;50.058;8.688;2023-04-15T11:28:40;99358.84;;;12.59
51149;BMP280;37210;50.058;8.688;2023-04-15T11:31:10;99353.94;;;12.44
51149;BMP280;37210;50.058;8.688;2023-04-15T11:33:52;99365.50;;;12.34
51149;BMP280;37210;50.058;8.688;2023-04-15T11:36:23;99463.69;;;13.04
51149;BMP280;37210;50.058;8.688;2023-04-15T11:38:57;99342.53;;;12.06
51149;BMP280;37210;50.058;8.688;2023-04-15T11:41:26;99265.06;;;11.47
51149;BMP280;37210;50.058;8.688;2023-04-15T11:43:56;99307.59;;;12.05
51149;BMP280;37210;50.058;8.688;2023-04-15T11:46:28;99489.50;;;12.41
51149;BMP280;37210;50.058;8.688;2023-04-15T11:48:56;99263.59;;;10.83
51149;BMP280;37210;50.058;8.688;2023-04-15T11:51:25;99547.50;;;12.70
51149;BMP280;37210;50.058;8.688;2023-04-15T11:53:52;99280.09;;;10.87
51149;BMP280;37210;50.058;8.688;2023-04-15T11:56:22;99301.28;;;11.23
51149;BMP280;37210;50.058;8.688;2023-04-15T11:58:52;99321.41;;;11.18
51149;BMP280;37210;50.058;8.688;2023-04-15T12:01:31;99409.16;;;11.92
51149;BMP280;37210;50.058;8.688;2023-04-15T12:04:00;99355.03;;;11.41
51149;BMP280;37210;50.058;8.688;2023-04-15T12:06:31;99577.31;;;13.10
51149;BMP280;37210;50.058;8.688;2023-04-15T12:09:09;99513.63;;;12.12
51149;BMP280;37210;50.058;8.688;2023-04-15T12:11:45;99569.56;;;12.58
51149;BMP280;37210;50.058;8.688;2023-04-15T12:14:23;99552.63;;;11.80
51149;BMP280;37210;50.058;8.688;2023-04-15T12:16:56;99565.47;;;12.44
51149;BMP280;37210;50.058;8.688;2023-04-15T12:19:26;99559.72;;;11.70
51149;BMP280;37210;50.058;8.688;2023-04-15T12:21:57;99570.09;;;11.79
51149;BMP280;37210;50.058;8.688;2023-04-15T12:24:27;99603.41;;;12.25
51149;BMP280;37210;50.058;8.688;2023-04-15T12:27:01;99410.34;;;11.23
51149;BMP280;37210;50.058;8.688;2023-04-15T12:29:29;99616.84;;;12.05
51149;BMP280;37210;50.058;8.688;2023-04-15T12:32:05;99431.75;;;11.48
51149;BMP280;37210;50.058;8.688;2023-04-15T12:34:35;99499.53;;;12.19
51149;BMP280;37210;50.058;8.688;2023-04-15T12:37:05;99623.91;;;12.53
51149;BMP280;37210;50.058;8.688;2023-04-15T12:39:36;99622.28;;;12.46
51149;BMP280;37210;50.058;8.688;2023-04-15T12:42:05;99579.44;;;11.97
51149;BMP280;37210;50.058;8.688;2023-04-15T12:44:34;99628.72;;;11.71
51149;BMP280;37210;50.058;8.688;2023-04-15T12:47:04;99552.41;;;11.92
51149;BMP280;37210;50.058;8.688;2023-04-15T12:49:32;99636.22;;;12.48
51149;BMP280;37210;50.058;8.688;2023-04-15T12:52:01;99577.25;;;12.22
51149;BMP280;37210;50.058;8.688;2023-04-15T12:54:30;99639.31;;;12.71
51149;BMP280;37210;50.058;8.688;2023-04-15T12:56:58;99636.72;;;12.68
51149;BMP280;37210;50.058;8.688;2023-04-15T12:59:26;99639.66;;;12.52
51149;BMP280;37210;50.058;8.688;2023-04-15T13:01:54;99621.69;;;12.29
51149;BMP280;37210;50.058;8.688;2023-04-15T13:04:23;99653.22;;;12.26
51149;BMP280;37210;50.058;8.688;2023-04-15T13:06:55;99661.53;;;11.96
51149;BMP280;37210;50.058;8.688;2023-04-15T13:09:24;99640.56;;;11.96
51149;BMP280;37210;50.058;8.688;2023-04-15T13:11:52;99563.81;;;11.28
51149;BMP280;37210;50.058;8.688;2023-04-15T13:14:19;99496.50;;;10.76
51149;BMP280;37210;50.058;8.688;2023-04-15T13:16:48;99673.25;;;11.71
51149;BMP280;37210;50.058;8.688;2023-04-15T13:19:18;99616.72;;;11.53
51149;BMP280;37210;50.058;8.688;2023-04-15T13:21:56;99516.38;;;10.90
51149;BMP280;37210;50.058;8.688;2023-04-15T13:24:24;99670.09;;;11.45
51149;BMP280;37210;50.058;8.688;2023-04-15T13:26:53;99540.19;;;10.68
51149;BMP280;37210;50.058;8.688;2023-04-15T13:29:22;99678.50;;;11.71
51149;BMP280;37210;50.058;8.688;2023-04-15T13:31:58;99663.97;;;12.10
51149;BMP280;37210;50.058;8.688;2023-04-15T13:34:26;99595.09;;;11.41
51149;BMP280;37210;50.058;8.688;2023-04-15T13:36:55;99662.63;;;11.81
51149;BMP280;37210;50.058;8.688;2023-04-15T13:39:23;99679.84;;;11.99
51149;BMP280;37210;50.058;8.688;2023-04-15T13:41:53;99691.31;;;11.92
51149;BMP280;37210;50.058;8.688;2023-04-15T13:44:21;99682.75;;;11.79
51149;BMP280;37210;50.058;8.688;2023-04-15T13:46:48;99657.47;;;11.75
51149;BMP280;37210;50.058;8.688;2023-04-15T13:49:17;99693.03;;;11.93
51149;BMP280;37210;50.058;8.688;2023-04-15T13:51:45;99641.66;;;11.81
51149;BMP280;37210;50.058;8.688;2023-04-15T13:54:17;99672.75;;;12.07
51149;BMP280;37210;50.058;8.688;2023-04-15T13:56:45;99596.56;;;11.58
51149;BMP280;37210;50.058;8.688;2023-04-15T13:59:13;99666.56;;;12.11
51149;BMP280;37210;50.058;8.688;2023-04-15T14:01:40;99686.06;;;11.92
51149;BMP280;37210;50.058;8.688;2023-04-15T14:04:08;99695.41;;;12.08
51149;BMP280;37210;50.058;8.688;2023-04-15T14:06:36;99693.03;;;11.94
51149;BMP280;37210;50.058;8.688;2023-04-15T14:09:03;99688.19;;;12.25
51149;BMP280;37210;50.058;8.688;2023-04-15T14:11:32;99699.97;;;12.52
51149;BMP280;37210;50.058;8.688;2023-04-15T14:14:01;99617.38;;;12.25
51149;BMP280;37210;50.058;8.688;2023-04-15T14:16:29;99691.06;;;12.63
51149;BMP280;37210;50.058;8.688;2023-04-15T14:18:58;99692.66;;;12.70
51149;BMP280;37210;50.058;8.688;2023-04-15T14:21:26;99689.00;;;12.80
51149;BMP280;37210;50.058;8.688;2023-04-15T14:23:55;99703.34;;;12.61
51149;BMP280;37210;50.058;8.688;2023-04-15T14:26:22;99691.09;;;12.62